sensor_id;sensor_type;location;lat;lon;timestamp;P1;durP1;ratioP1;P2;durP2;ratioP2
74383;SDS011;62824;52.994;-3.936;2023-10-09T00:00:16;13.63;;;8.48;;
74383;SDS011;62824;52.994;-3.936;2023-10-09T00:03:00;18.60;;;8.93;;
74383;SDS011;62824;52.994;-3.936;2023-10-09T00:05:27;20.55;;;8.93;;
74383;SDS011;62824;52.994;-3.936;2023-10-09T00:08:16;19.80;;;9.60;;
74383;SDS011;62824;52.994;-3.936;2023-10-09T00:10:47;18.98;;;9.20;;
74383;SDS011;62824;52.994;-3.936;2023-10-09T00:13:22;16.88;;;8.57;;
74383;SDS011;62824;52.994;-3.936;2023-10-09T00:15:56;15.57;;;8.40;;
74383;SDS011;62824;52.994;-3.936;2023-10-09T00:18:27;18.88;;;8.95;;
74383;SDS011;62824;52.994;-3.936;2023-10-09T00:20:58;17.30;;;8.48;;
74383;SDS011;62824;52.994;-3.936;2023-10-09T00:23:37;16.30;;;9.30;;
74383;SDS011;62824;52.994;-3.936;2023-10-09T00:26:04;17.58;;;8.50;;
74383;SDS011;62824;52.994;-3.936;2023-10-09T00:28:34;14.98;;;9.05;;
74383;SDS011;62824;52.994;-3.936;2023-10-09T00:31:08;16.08;;;8.68;;
74383;SDS011;62824;52.994;-3.936;2023-10-09T00:33:40;17.23;;;9.73;;
74383;SDS011;62824;52.994;-3.936;2023-10-09T00:36:07;17.52;;;8.60;;
74383;SDS011;62824;52.994;-3.936;2023-10-09T00:38:37;18.25;;;8.27;;
74383;SDS011;62824;52.994;-3.936;2023-10-09T00:41:10;17.85;;;9.88;;
74383;SDS011;62824;52.994;-3.936;2023-10-09T00:43:38;20.75;;;10.70;;
74383;SDS011;62824;52.994;-3.936;2023-10-09T00:46:08;19.05;;;10.85;;
74383;SDS011;62824;52.994;-3.936;2023-10-09T00:48:50;19.83;;;10.63;;
74383;SDS011;62824;52.994;-3.936;2023-10-09T00:51:19;17.25;;;10.15;;
74383;SDS011;62824;52.994;-3.936;2023-10-09T00:53:48;18.50;;;10.32;;
74383;SDS011;62824;52.994;-3.936;2023-10-09T00:56:21;18.13;;;10.80;;
74383;SDS011;62824;52.994;-3.936;2023-10-09T00:58:51;17.60;;;9.73;;
74383;SDS011;62824;52.994;-3.936;2023-10-09T01:01:21;24.38;;;10.50;;
74383;SDS011;62824;52.994;-3.936;2023-10-09T01:03:59;21.13;;;9.90;;
74383;SDS011;62824;52.994;-3.936;2023-10-09T01:06:41;20.23;;;9.65;;
74383;SDS011;62824;52.994;-3.936;2023-10-09T01:09:09;21.05;;;9.90;;
74383;SDS011;62824;52.994;-3.936;2023-10-09T01:11:36;20.20;;;10.73;;
74383;SDS011;62824;52.994;-3.936;2023-10-09T01:14:28;15.85;;;9.30;;
74383;SDS011;62824;52.994;-3.936;2023-10-09T01:16:56;20.13;;;9.85;;
74383;SDS011;62824;52.994;-3.936;2023-10-09T01:19:22;18.05;;;9.48;;
74383;SDS011;62824;52.994;-3.936;2023-10-09T01:21:56;19.08;;;10.25;;
74383;SDS011;62824;52.994;-3.936;2023-10-09T01:24:29;16.38;;;9.18;;
74383;SDS011;62824;52.994;-3.936;2023-10-09T01:27:00;16.25;;;10.00;;
74383;SDS011;62824;52.994;-3.936;2023-10-09T01:29:30;18.27;;;9.88;;
74383;SDS011;62824;52.994;-3.936;2023-10-09T01:31:56;17.02;;;9.98;;
74383;SDS011;62824;52.994;-3.936;2023-10-09T01:34:26;19.15;;;10.00;;
74383;SDS011;62824;52.994;-3.936;2023-10-09T01:37:10;17.02;;;10.70;;
74383;SDS011;62824;52.994;-3.936;2023-10-09T01:39:46;20.33;;;9.88;;
74383;SDS011;62824;52.994;-3.936;2023-10-09T01:42:13;19.23;;;9.02;;
74383;SDS011;62824;52.994;-3.936;2023-10-09T01:44:57;18.38;;;9.95;;
74383;SDS011;62824;52.994;-3.936;2023-10-09T01:47:43;19.05;;;10.45;;
74383;SDS011;62824;52.994;-3.936;2023-10-09T01:50:18;17.15;;;9.30;;
74383;SDS011;62824;52.994;-3.936;2023-10-09T01:52:56;15.85;;;9.50;;
74383;SDS011;62824;52.994;-3.936;2023-10-09T01:55:26;14.52;;;8.50;;
74383;SDS011;62824;52.994;-3.936;2023-10-09T01:58:11;19.08;;;9.25;;
74383;SDS011;62824;52.994;-3.936;2023-10-09T02:01:03;20.20;;;9.38;;
74383;SDS011;62824;52.994;-3.936;2023-10-09T02:03:31;16.70;;;9.40;;
74383;SDS011;62824;52.994;-3.936;2023-10-09T02:06:02;18.50;;;9.18;;
74383;SDS011;62824;52.994;-3.936;2023-10-09T02:08:46;16.30;;;8.95;;
74383;SDS011;62824;52.994;-3.936;2023-10-09T02:11:15;16.00;;;8.77;;
74383;SDS011;62824;52.994;-3.936;2023-10-09T02:13:49;13.38;;;8.02;;
74383;SDS011;62824;52.994;-3.936;2023-10-09T02:16:26;15.27;;;8.68;;
74383;SDS011;62824;52.994;-3.936;2023-10-09T02:18:54;16.95;;;9.13;;
74383;SDS011;62824;52.994;-3.936;2023-10-09T02:21:24;17.30;;;9.02;;
74383;SDS011;62824;52.994;-3.936;2023-10-09T02:24:02;17.67;;;10.35;;
74383;SDS011;62824;52.994;-3.936;2023-10-09T02:26:34;19.33;;;9.93;;
74383;SDS011;62824;52.994;-3.936;2023-10-09T02:29:03;14.55;;;8.55;;
74383;SDS011;62824;52.994;-3.936;2023-10-09T02:31:49;17.20;;;9.40;;
74383;SDS011;62824;52.994;-3.936;2023-10-09T02:34:25;15.18;;;8.57;;
74383;SDS011;62824;52.994;-3.936;2023-10-09T02:36:53;17.40;;;9.48;;
74383;SDS011;62824;52.994;-3.936;2023-10-09T02:39:30;16.38;;;9.13;;
74383;SDS011;62824;52.994;-3.936;2023-10-09T02:42:08;20.23;;;10.48;;
74383;SDS011;62824;52.994;-3.936;2023-10-09T02:44:40;18.40;;;10.13;;
74383;SDS011;62824;52.994;-3.936;2023-10-09T02:47:14;17.35;;;8.35;;
74383;SDS011;62824;52.994;-3.936;2023-10-09T02:50:04;18.50;;;8.95;;
74383;SDS011;62824;52.994;-3.936;2023-10-09T02:52:45;17.38;;;9.00;;
74383;SDS011;62824;52.994;-3.936;2023-10-09T02:55:15;18.48;;;10.25;;
74383;SDS011;62824;52.994;-3.936;2023-10-09T02:57:54;18.48;;;10.25;;
74383;SDS011;62824;52.994;-3.936;2023-10-09T03:00:45;18.83;;;10.13;;
74383;SDS011;62824;52.994;-3.936;2023-10-09T03:03:12;23.65;;;10.32;;
74383;SDS011;62824;52.994;-3.936;2023-10-09T03:05:41;20.25;;;10.25;;
74383;SDS011;62824;52.994;-3.936;2023-10-09T03:08:09;18.08;;;8.90;;
74383;SDS011;62824;52.994;-3.936;2023-10-09T03:10:37;21.70;;;9.15;;
74383;SDS011;62824;52.994;-3.936;2023-10-09T03:13:04;27.60;;;9.88;;
74383;SDS011;62824;52.994;-3.936;2023-10-09T03:15:31;21.60;;;12.38;;
74383;SDS011;62824;52.994;-3.936;2023-10-09T03:18:01;23.67;;;9.40;;
74383;SDS011;62824;52.994;-3.936;2023-10-09T03:20:29;28.98;;;10.57;;
74383;SDS011;62824;52.994;-3.936;2023-10-09T03:22:56;24.95;;;10.02;;
74383;SDS011;62824;52.994;-3.936;2023-10-09T03:25:22;22.30;;;10.10;;
74383;SDS011;62824;52.994;-3.936;2023-10-09T03:27:50;25.80;;;11.60;;
74383;SDS011;62824;52.994;-3.936;2023-10-09T03:30:18;16.35;;;8.85;;
74383;SDS011;62824;52.994;-3.936;2023-10-09T03:32:50;23.90;;;10.70;;
74383;SDS011;62824;52.994;-3.936;2023-10-09T03:35:17;20.35;;;8.82;;
74383;SDS011;62824;52.994;-3.936;2023-10-09T03:37:56;20.73;;;9.55;;
74383;SDS011;62824;52.994;-3.936;2023-10-09T03:40:25;19.98;;;9.77;;
74383;SDS011;62824;52.994;-3.936;2023-10-09T03:42:52;27.85;;;10.32;;
74383;SDS011;62824;52.994;-3.936;2023-10-09T03:45:19;21.38;;;9.40;;
74383;SDS011;62824;52.994;-3.936;2023-10-09T03:47:55;22.02;;;10.43;;
74383;SDS011;62824;52.994;-3.936;2023-10-09T03:50:26;23.38;;;9.85;;
74383;SDS011;62824;52.994;-3.936;2023-10-09T03:52:54;26.30;;;10.32;;
74383;SDS011;62824;52.994;-3.936;2023-10-09T03:55:20;17.58;;;8.98;;
74383;SDS011;62824;52.994;-3.936;2023-10-09T03:57:47;16.60;;;8.80;;
74383;SDS011;62824;52.994;-3.936;2023-10-09T04:00:13;19.40;;;9.63;;
74383;SDS011;62824;52.994;-3.936;2023-10-09T04:02:41;18.20;;;9.07;;
74383;SDS011;62824;52.994;-3.936;2023-10-09T04:05:07;20.83;;;9.77;;
74383;SDS011;62824;52.994;-3.936;2023-10-09T04:07:33;21.17;;;10.02;;
74383;SDS011;62824;52.994;-3.936;2023-10-09T04:10:00;17.65;;;8.93;;
74383;SDS011;62824;52.994;-3.936;2023-10-09T04:12:49;16.60;;;8.48;;
74383;SDS011;62824;52.994;-3.936;2023-10-09T04:15:18;16.30;;;9.15;;
74383;SDS011;62824;52.994;-3.936;2023-10-09T04:17:48;15.20;;;8.13;;
74383;SDS011;62824;52.994;-3.936;2023-10-09T04:20:16;14.55;;;7.03;;
74383;SDS011;62824;52.994;-3.936;2023-10-09T04:22:42;20.73;;;9.35;;
74383;SDS011;62824;52.994;-3.936;2023-10-09T04:25:18;15.52;;;7.88;;
74383;SDS011;62824;52.994;-3.936;2023-10-09T04:27:52;16.77;;;8.77;;
74383;SDS011;62824;52.994;-3.936;2023-10-09T04:30:25;18.63;;;8.15;;
74383;SDS011;62824;52.994;-3.936;2023-10-09T04:32:51;17.10;;;8.38;;
74383;SDS011;62824;52.994;-3.936;2023-10-09T04:35:20;15.55;;;8.40;;
74383;SDS011;62824;52.994;-3.936;2023-10-09T04:37:49;16.42;;;8.35;;
74383;SDS011;62824;52.994;-3.936;2023-10-09T04:40:29;18.58;;;8.38;;
74383;SDS011;62824;52.994;-3.936;2023-10-09T04:43:16;18.60;;;8.68;;
74383;SDS011;62824;52.994;-3.936;2023-10-09T04:45:48;16.80;;;8.45;;
74383;SDS011;62824;52.994;-3.936;2023-10-09T04:48:31;16.70;;;8.13;;
74383;SDS011;62824;52.994;-3.936;2023-10-09T04:51:06;19.63;;;7.95;;
74383;SDS011;62824;52.994;-3.936;2023-10-09T04:53:59;13.57;;;7.43;;
74383;SDS011;62824;52.994;-3.936;2023-10-09T04:56:37;13.70;;;7.20;;
74383;SDS011;62824;52.994;-3.936;2023-10-09T04:59:17;16.02;;;7.68;;
74383;SDS011;62824;52.994;-3.936;2023-10-09T05:01:43;18.95;;;7.93;;
74383;SDS011;62824;52.994;-3.936;2023-10-09T05:04:11;14.18;;;7.30;;
74383;SDS011;62824;52.994;-3.936;2023-10-09T05:06:56;12.98;;;7.10;;
74383;SDS011;62824;52.994;-3.936;2023-10-09T05:09:22;14.85;;;7.97;;
74383;SDS011;62824;52.994;-3.936;2023-10-09T05:11:49;14.65;;;6.53;;
74383;SDS011;62824;52.994;-3.936;2023-10-09T05:14:17;13.10;;;7.13;;
74383;SDS011;62824;52.994;-3.936;2023-10-09T05:16:52;12.98;;;6.35;;
74383;SDS011;62824;52.994;-3.936;2023-10-09T05:19:21;18.10;;;8.27;;
74383;SDS011;62824;52.994;-3.936;2023-10-09T05:22:07;14.82;;;6.72;;
74383;SDS011;62824;52.994;-3.936;2023-10-09T05:24:42;16.23;;;8.07;;
74383;SDS011;62824;52.994;-3.936;2023-10-09T05:27:10;14.57;;;7.50;;
74383;SDS011;62824;52.994;-3.936;2023-10-09T05:30:05;15.77;;;7.88;;
74383;SDS011;62824;52.994;-3.936;2023-10-09T05:32:49;14.23;;;7.32;;
74383;SDS011;62824;52.994;-3.936;2023-10-09T05:35:20;17.17;;;7.18;;
74383;SDS011;62824;52.994;-3.936;2023-10-09T05:38:05;17.13;;;7.47;;
74383;SDS011;62824;52.994;-3.936;2023-10-09T05:40:41;18.55;;;8.32;;
74383;SDS011;62824;52.994;-3.936;2023-10-09T05:43:09;19.73;;;9.18;;
74383;SDS011;62824;52.994;-3.936;2023-10-09T05:45:55;24.92;;;7.72;;
74383;SDS011;62824;52.994;-3.936;2023-10-09T05:48:33;19.33;;;7.07;;
74383;SDS011;62824;52.994;-3.936;2023-10-09T05:51:19;22.45;;;6.10;;
74383;SDS011;62824;52.994;-3.936;2023-10-09T05:54:04;17.42;;;6.95;;
74383;SDS011;62824;52.994;-3.936;2023-10-09T05:56:49;19.98;;;6.63;;
74383;SDS011;62824;52.994;-3.936;2023-10-09T05:59:33;15.57;;;6.28;;
74383;SDS011;62824;52.994;-3.936;2023-10-09T06:02:31;18.15;;;5.90;;
74383;SDS011;62824;52.994;-3.936;2023-10-09T06:05:15;15.05;;;5.78;;
74383;SDS011;62824;52.994;-3.936;2023-10-09T06:08:00;12.13;;;5.90;;
74383;SDS011;62824;52.994;-3.936;2023-10-09T06:10:32;10.50;;;5.25;;
74383;SDS011;62824;52.994;-3.936;2023-10-09T06:13:05;12.23;;;6.32;;
74383;SDS011;62824;52.994;-3.936;2023-10-09T06:15:37;12.13;;;5.75;;
74383;SDS011;62824;52.994;-3.936;2023-10-09T06:18:15;13.02;;;5.72;;
74383;SDS011;62824;52.994;-3.936;2023-10-09T06:20:50;12.95;;;5.75;;
74383;SDS011;62824;52.994;-3.936;2023-10-09T06:23:35;54.30;;;8.85;;
74383;SDS011;62824;52.994;-3.936;2023-10-09T06:26:24;50.65;;;8.48;;
74383;SDS011;62824;52.994;-3.936;2023-10-09T06:28:51;68.53;;;7.93;;
74383;SDS011;62824;52.994;-3.936;2023-10-09T06:31:39;93.20;;;10.80;;
74383;SDS011;62824;52.994;-3.936;2023-10-09T06:34:27;141.25;;;13.40;;
74383;SDS011;62824;52.994;-3.936;2023-10-09T06:37:00;142.35;;;13.20;;
74383;SDS011;62824;52.994;-3.936;2023-10-09T06:39:45;101.65;;;10.43;;
74383;SDS011;62824;52.994;-3.936;2023-10-09T06:42:36;109.40;;;11.98;;
74383;SDS011;62824;52.994;-3.936;2023-10-09T06:45:08;167.48;;;17.02;;
74383;SDS011;62824;52.994;-3.936;2023-10-09T06:47:47;126.30;;;14.82;;
74383;SDS011;62824;52.994;-3.936;2023-10-09T06:50:20;17.83;;;5.80;;
74383;SDS011;62824;52.994;-3.936;2023-10-09T06:52:51;12.95;;;4.97;;
74383;SDS011;62824;52.994;-3.936;2023-10-09T06:55:43;23.15;;;4.97;;
74383;SDS011;62824;52.994;-3.936;2023-10-09T06:58:29;35.08;;;5.82;;
74383;SDS011;62824;52.994;-3.936;2023-10-09T07:01:06;20.50;;;5.40;;
74383;SDS011;62824;52.994;-3.936;2023-10-09T07:03:50;12.38;;;6.65;;
74383;SDS011;62824;52.994;-3.936;2023-10-09T07:06:19;34.80;;;7.53;;
74383;SDS011;62824;52.994;-3.936;2023-10-09T07:08:55;24.20;;;8.05;;
74383;SDS011;62824;52.994;-3.936;2023-10-09T07:11:34;35.92;;;7.90;;
74383;SDS011;62824;52.994;-3.936;2023-10-09T07:16:57;36.83;;;6.97;;
74383;SDS011;62824;52.994;-3.936;2023-10-09T07:19:41;38.22;;;7.53;;
74383;SDS011;62824;52.994;-3.936;2023-10-09T07:22:08;20.73;;;6.38;;
74383;SDS011;62824;52.994;-3.936;2023-10-09T07:24:43;23.95;;;6.85;;
74383;SDS011;62824;52.994;-3.936;2023-10-09T07:27:09;115.35;;;11.77;;
74383;SDS011;62824;52.994;-3.936;2023-10-09T07:29:39;100.82;;;12.32;;
74383;SDS011;62824;52.994;-3.936;2023-10-09T07:32:17;15.27;;;5.65;;
74383;SDS011;62824;52.994;-3.936;2023-10-09T07:34:49;55.58;;;8.50;;
74383;SDS011;62824;52.994;-3.936;2023-10-09T07:37:19;46.97;;;6.60;;
74383;SDS011;62824;52.994;-3.936;2023-10-09T07:39:48;37.20;;;5.68;;
74383;SDS011;62824;52.994;-3.936;2023-10-09T07:42:23;44.67;;;7.60;;
74383;SDS011;62824;52.994;-3.936;2023-10-09T07:45:19;42.40;;;6.75;;
74383;SDS011;62824;52.994;-3.936;2023-10-09T07:47:48;34.75;;;6.18;;
74383;SDS011;62824;52.994;-3.936;2023-10-09T07:50:28;30.90;;;6.65;;
74383;SDS011;62824;52.994;-3.936;2023-10-09T07:53:09;14.52;;;6.40;;
74383;SDS011;62824;52.994;-3.936;2023-10-09T07:55:46;28.25;;;6.47;;
74383;SDS011;62824;52.994;-3.936;2023-10-09T07:58:31;12.45;;;5.30;;
74383;SDS011;62824;52.994;-3.936;2023-10-09T08:01:10;22.30;;;6.28;;
74383;SDS011;62824;52.994;-3.936;2023-10-09T08:04:00;37.13;;;7.00;;
74383;SDS011;62824;52.994;-3.936;2023-10-09T08:06:37;24.98;;;4.97;;
74383;SDS011;62824;52.994;-3.936;2023-10-09T08:09:03;18.23;;;5.50;;
74383;SDS011;62824;52.994;-3.936;2023-10-09T08:11:38;17.25;;;4.80;;
74383;SDS011;62824;52.994;-3.936;2023-10-09T08:14:11;10.40;;;4.88;;
74383;SDS011;62824;52.994;-3.936;2023-10-09T08:16:48;12.70;;;4.72;;
74383;SDS011;62824;52.994;-3.936;2023-10-09T08:19:17;14.20;;;5.15;;
74383;SDS011;62824;52.994;-3.936;2023-10-09T08:22:00;13.27;;;4.90;;
74383;SDS011;62824;52.994;-3.936;2023-10-09T08:24:44;13.85;;;6.20;;
74383;SDS011;62824;52.994;-3.936;2023-10-09T08:27:21;10.60;;;4.63;;
74383;SDS011;62824;52.994;-3.936;2023-10-09T08:29:56;9.77;;;3.65;;
74383;SDS011;62824;52.994;-3.936;2023-10-09T08:32:40;14.30;;;7.00;;
74383;SDS011;62824;52.994;-3.936;2023-10-09T08:35:11;9.18;;;3.47;;
74383;SDS011;62824;52.994;-3.936;2023-10-09T08:37:55;6.18;;;3.30;;
74383;SDS011;62824;52.994;-3.936;2023-10-09T08:40:34;9.43;;;4.10;;
74383;SDS011;62824;52.994;-3.936;2023-10-09T08:43:14;5.18;;;3.10;;
74383;SDS011;62824;52.994;-3.936;2023-10-09T08:45:54;7.72;;;3.83;;
74383;SDS011;62824;52.994;-3.936;2023-10-09T08:48:26;6.22;;;3.10;;
74383;SDS011;62824;52.994;-3.936;2023-10-09T08:50:53;6.72;;;4.00;;
74383;SDS011;62824;52.994;-3.936;2023-10-09T08:53:20;4.53;;;2.60;;
74383;SDS011;62824;52.994;-3.936;2023-10-09T08:55:49;4.20;;;2.70;;
74383;SDS011;62824;52.994;-3.936;2023-10-09T08:58:16;6.43;;;3.17;;
74383;SDS011;62824;52.994;-3.936;2023-10-09T09:00:49;6.93;;;2.67;;
74383;SDS011;62824;52.994;-3.936;2023-10-09T09:03:17;6.20;;;3.53;;
74383;SDS011;62824;52.994;-3.936;2023-10-09T09:05:45;8.63;;;3.67;;
74383;SDS011;62824;52.994;-3.936;2023-10-09T09:08:21;5.85;;;3.03;;
74383;SDS011;62824;52.994;-3.936;2023-10-09T09:10:59;6.38;;;3.67;;
74383;SDS011;62824;52.994;-3.936;2023-10-09T09:14:07;5.97;;;2.85;;
74383;SDS011;62824;52.994;-3.936;2023-10-09T09:16:40;4.88;;;2.60;;
74383;SDS011;62824;52.994;-3.936;2023-10-09T09:19:09;5.47;;;3.03;;
74383;SDS011;62824;52.994;-3.936;2023-10-09T09:21:36;8.50;;;3.97;;
74383;SDS011;62824;52.994;-3.936;2023-10-09T09:24:10;6.72;;;3.33;;
74383;SDS011;62824;52.994;-3.936;2023-10-09T09:26:46;5.63;;;3.47;;
74383;SDS011;62824;52.994;-3.936;2023-10-09T09:29:13;6.18;;;3.40;;
74383;SDS011;62824;52.994;-3.936;2023-10-09T09:31:52;5.63;;;2.92;;
74383;SDS011;62824;52.994;-3.936;2023-10-09T09:34:19;4.38;;;3.05;;
74383;SDS011;62824;52.994;-3.936;2023-10-09T09:36:51;6.43;;;3.28;;
74383;SDS011;62824;52.994;-3.936;2023-10-09T09:39:22;6.85;;;3.90;;
74383;SDS011;62824;52.994;-3.936;2023-10-09T09:41:55;4.70;;;3.08;;
74383;SDS011;62824;52.994;-3.936;2023-10-09T09:44:39;7.45;;;2.92;;
74383;SDS011;62824;52.994;-3.936;2023-10-09T09:47:14;16.15;;;7.78;;
74383;SDS011;62824;52.994;-3.936;2023-10-09T09:49:52;23.52;;;14.85;;
74383;SDS011;62824;52.994;-3.936;2023-10-09T09:52:36;13.65;;;7.18;;
74383;SDS011;62824;52.994;-3.936;2023-10-09T09:55:06;8.00;;;5.32;;
74383;SDS011;62824;52.994;-3.936;2023-10-09T09:57:43;7.38;;;5.20;;
74383;SDS011;62824;52.994;-3.936;2023-10-09T10:00:18;9.65;;;6.32;;
74383;SDS011;62824;52.994;-3.936;2023-10-09T10:03:05;8.82;;;4.88;;
74383;SDS011;62824;52.994;-3.936;2023-10-09T10:05:33;7.40;;;4.70;;
74383;SDS011;62824;52.994;-3.936;2023-10-09T10:08:00;6.35;;;4.60;;
74383;SDS011;62824;52.994;-3.936;2023-10-09T10:10:38;6.38;;;4.35;;
74383;SDS011;62824;52.994;-3.936;2023-10-09T10:13:17;6.45;;;4.40;;
74383;SDS011;62824;52.994;-3.936;2023-10-09T10:16:07;5.63;;;2.90;;
74383;SDS011;62824;52.994;-3.936;2023-10-09T10:21:43;4.90;;;2.90;;
74383;SDS011;62824;52.994;-3.936;2023-10-09T10:27:17;5.95;;;3.22;;
74383;SDS011;62824;52.994;-3.936;2023-10-09T10:32:56;7.82;;;3.83;;
74383;SDS011;62824;52.994;-3.936;2023-10-09T10:53:26;8.82;;;4.53;;
74383;SDS011;62824;52.994;-3.936;2023-10-09T10:56:02;9.23;;;4.72;;
74383;SDS011;62824;52.994;-3.936;2023-10-09T10:58:37;7.20;;;4.60;;
74383;SDS011;62824;52.994;-3.936;2023-10-09T11:01:03;6.90;;;4.47;;
74383;SDS011;62824;52.994;-3.936;2023-10-09T11:03:40;7.00;;;4.53;;
74383;SDS011;62824;52.994;-3.936;2023-10-09T11:06:24;6.97;;;5.00;;
74383;SDS011;62824;52.994;-3.936;2023-10-09T11:09:00;6.15;;;3.78;;
74383;SDS011;62824;52.994;-3.936;2023-10-09T11:11:34;6.63;;;4.38;;
74383;SDS011;62824;52.994;-3.936;2023-10-09T11:14:12;8.18;;;5.47;;
74383;SDS011;62824;52.994;-3.936;2023-10-09T11:16:39;7.60;;;5.15;;
74383;SDS011;62824;52.994;-3.936;2023-10-09T11:19:13;7.75;;;5.30;;
74383;SDS011;62824;52.994;-3.936;2023-10-09T11:21:53;7.63;;;4.95;;
74383;SDS011;62824;52.994;-3.936;2023-10-09T11:24:28;6.90;;;4.80;;
74383;SDS011;62824;52.994;-3.936;2023-10-09T11:27:04;8.52;;;5.20;;
74383;SDS011;62824;52.994;-3.936;2023-10-09T11:29:31;7.80;;;4.93;;
74383;SDS011;62824;52.994;-3.936;2023-10-09T11:32:17;7.53;;;4.68;;
74383;SDS011;62824;52.994;-3.936;2023-10-09T11:34:44;8.52;;;5.00;;
74383;SDS011;62824;52.994;-3.936;2023-10-09T11:37:20;8.75;;;5.32;;
74383;SDS011;62824;52.994;-3.936;2023-10-09T11:39:54;10.98;;;5.72;;
74383;SDS011;62824;52.994;-3.936;2023-10-09T11:42:21;7.18;;;5.13;;
74383;SDS011;62824;52.994;-3.936;2023-10-09T11:45:25;8.50;;;4.65;;
74383;SDS011;62824;52.994;-3.936;2023-10-09T11:47:56;8.07;;;5.47;;
74383;SDS011;62824;52.994;-3.936;2023-10-09T11:53:19;8.27;;;5.07;;
74383;SDS011;62824;52.994;-3.936;2023-10-09T11:55:48;10.10;;;5.28;;
74383;SDS011;62824;52.994;-3.936;2023-10-09T11:58:18;7.40;;;5.10;;
74383;SDS011;62824;52.994;-3.936;2023-10-09T12:03:41;9.18;;;4.82;;
74383;SDS011;62824;52.994;-3.936;2023-10-09T12:06:08;6.57;;;4.95;;
74383;SDS011;62824;52.994;-3.936;2023-10-09T12:08:37;6.50;;;4.53;;
74383;SDS011;62824;52.994;-3.936;2023-10-09T12:11:06;6.55;;;4.35;;
74383;SDS011;62824;52.994;-3.936;2023-10-09T12:13:36;5.70;;;4.65;;
74383;SDS011;62824;52.994;-3.936;2023-10-09T12:16:07;6.28;;;5.10;;
74383;SDS011;62824;52.994;-3.936;2023-10-09T12:18:40;7.75;;;5.68;;
74383;SDS011;62824;52.994;-3.936;2023-10-09T12:21:07;7.40;;;5.70;;
74383;SDS011;62824;52.994;-3.936;2023-10-09T12:23:40;5.60;;;4.60;;
74383;SDS011;62824;52.994;-3.936;2023-10-09T12:26:08;5.50;;;4.30;;
74383;SDS011;62824;52.994;-3.936;2023-10-09T12:28:39;6.78;;;4.50;;
74383;SDS011;62824;52.994;-3.936;2023-10-09T12:31:06;7.47;;;4.60;;
74383;SDS011;62824;52.994;-3.936;2023-10-09T12:33:31;5.85;;;4.47;;
74383;SDS011;62824;52.994;-3.936;2023-10-09T12:35:57;7.07;;;5.00;;
74383;SDS011;62824;52.994;-3.936;2023-10-09T12:38:26;5.53;;;4.30;;
74383;SDS011;62824;52.994;-3.936;2023-10-09T12:41:03;6.70;;;4.05;;
74383;SDS011;62824;52.994;-3.936;2023-10-09T12:43:47;6.55;;;3.85;;
74383;SDS011;62824;52.994;-3.936;2023-10-09T12:46:13;6.72;;;4.03;;
74383;SDS011;62824;52.994;-3.936;2023-10-09T12:48:45;5.55;;;3.85;;
74383;SDS011;62824;52.994;-3.936;2023-10-09T12:51:14;7.65;;;4.10;;
74383;SDS011;62824;52.994;-3.936;2023-10-09T12:57:05;8.15;;;5.18;;
74383;SDS011;62824;52.994;-3.936;2023-10-09T12:59:38;6.70;;;4.65;;
74383;SDS011;62824;52.994;-3.936;2023-10-09T13:02:10;9.18;;;4.45;;
74383;SDS011;62824;52.994;-3.936;2023-10-09T13:04:53;6.28;;;4.43;;
74383;SDS011;62824;52.994;-3.936;2023-10-09T13:07:22;7.95;;;4.80;;
74383;SDS011;62824;52.994;-3.936;2023-10-09T13:09:48;9.07;;;5.07;;
74383;SDS011;62824;52.994;-3.936;2023-10-09T13:12:32;8.73;;;5.25;;
74383;SDS011;62824;52.994;-3.936;2023-10-09T13:14:59;6.50;;;4.53;;
74383;SDS011;62824;52.994;-3.936;2023-10-09T13:17:24;10.02;;;6.03;;
74383;SDS011;62824;52.994;-3.936;2023-10-09T13:19:52;13.77;;;6.80;;
74383;SDS011;62824;52.994;-3.936;2023-10-09T13:22:18;9.75;;;6.07;;
74383;SDS011;62824;52.994;-3.936;2023-10-09T13:24:48;7.25;;;5.50;;
74383;SDS011;62824;52.994;-3.936;2023-10-09T13:27:15;9.32;;;5.05;;
74383;SDS011;62824;52.994;-3.936;2023-10-09T13:29:46;8.40;;;5.38;;
74383;SDS011;62824;52.994;-3.936;2023-10-09T13:32:13;8.20;;;5.10;;
74383;SDS011;62824;52.994;-3.936;2023-10-09T13:34:42;7.47;;;5.55;;
74383;SDS011;62824;52.994;-3.936;2023-10-09T13:40:31;8.60;;;5.22;;
74383;SDS011;62824;52.994;-3.936;2023-10-09T13:42:58;9.07;;;6.00;;
74383;SDS011;62824;52.994;-3.936;2023-10-09T13:45:25;9.25;;;6.00;;
74383;SDS011;62824;52.994;-3.936;2023-10-09T13:47:55;6.93;;;5.45;;
74383;SDS011;62824;52.994;-3.936;2023-10-09T13:50:24;11.93;;;6.25;;
74383;SDS011;62824;52.994;-3.936;2023-10-09T13:52:57;8.65;;;6.53;;
74383;SDS011;62824;52.994;-3.936;2023-10-09T13:55:23;7.88;;;5.55;;
74383;SDS011;62824;52.994;-3.936;2023-10-09T13:57:56;11.13;;;5.63;;
74383;SDS011;62824;52.994;-3.936;2023-10-09T14:00:23;8.15;;;5.60;;
74383;SDS011;62824;52.994;-3.936;2023-10-09T14:02:59;7.32;;;5.18;;
74383;SDS011;62824;52.994;-3.936;2023-10-09T14:05:37;7.15;;;5.47;;
74383;SDS011;62824;52.994;-3.936;2023-10-09T14:08:09;8.85;;;5.03;;
74383;SDS011;62824;52.994;-3.936;2023-10-09T14:10:38;7.55;;;5.13;;
74383;SDS011;62824;52.994;-3.936;2023-10-09T14:13:04;8.07;;;5.63;;
74383;SDS011;62824;52.994;-3.936;2023-10-09T14:15:37;6.20;;;4.72;;
74383;SDS011;62824;52.994;-3.936;2023-10-09T14:18:06;9.48;;;5.15;;
74383;SDS011;62824;52.994;-3.936;2023-10-09T14:20:36;7.97;;;5.22;;
74383;SDS011;62824;52.994;-3.936;2023-10-09T14:23:03;7.60;;;4.80;;
74383;SDS011;62824;52.994;-3.936;2023-10-09T14:25:35;9.13;;;5.32;;
74383;SDS011;62824;52.994;-3.936;2023-10-09T14:28:08;9.27;;;5.38;;
74383;SDS011;62824;52.994;-3.936;2023-10-09T14:30:37;6.95;;;5.07;;
74383;SDS011;62824;52.994;-3.936;2023-10-09T14:33:13;7.43;;;4.72;;
74383;SDS011;62824;52.994;-3.936;2023-10-09T14:35:39;6.18;;;4.57;;
74383;SDS011;62824;52.994;-3.936;2023-10-09T14:38:07;6.60;;;4.50;;
74383;SDS011;62824;52.994;-3.936;2023-10-09T14:40:44;9.15;;;4.82;;
74383;SDS011;62824;52.994;-3.936;2023-10-09T14:43:10;6.28;;;4.30;;
74383;SDS011;62824;52.994;-3.936;2023-10-09T14:45:47;8.20;;;4.20;;
74383;SDS011;62824;52.994;-3.936;2023-10-09T14:48:18;7.45;;;4.30;;
74383;SDS011;62824;52.994;-3.936;2023-10-09T14:50:51;7.35;;;4.18;;
74383;SDS011;62824;52.994;-3.936;2023-10-09T14:53:23;6.73;;;4.37;;
74383;SDS011;62824;52.994;-3.936;2023-10-09T14:55:58;9.38;;;4.68;;
74383;SDS011;62824;52.994;-3.936;2023-10-09T14:58:28;5.72;;;4.05;;
74383;SDS011;62824;52.994;-3.936;2023-10-09T15:00:57;11.63;;;6.18;;
74383;SDS011;62824;52.994;-3.936;2023-10-09T15:03:36;10.40;;;5.38;;
74383;SDS011;62824;52.994;-3.936;2023-10-09T15:06:03;8.80;;;5.00;;
74383;SDS011;62824;52.994;-3.936;2023-10-09T15:08:33;7.47;;;4.82;;
74383;SDS011;62824;52.994;-3.936;2023-10-09T15:11:00;9.68;;;4.80;;
74383;SDS011;62824;52.994;-3.936;2023-10-09T15:13:25;6.80;;;4.05;;
74383;SDS011;62824;52.994;-3.936;2023-10-09T15:15:53;5.88;;;3.97;;
74383;SDS011;62824;52.994;-3.936;2023-10-09T15:18:20;7.78;;;4.68;;
74383;SDS011;62824;52.994;-3.936;2023-10-09T15:20:50;7.93;;;4.97;;
74383;SDS011;62824;52.994;-3.936;2023-10-09T15:23:16;8.40;;;4.68;;
74383;SDS011;62824;52.994;-3.936;2023-10-09T15:25:45;7.70;;;5.05;;
74383;SDS011;62824;52.994;-3.936;2023-10-09T15:28:15;7.03;;;4.50;;
74383;SDS011;62824;52.994;-3.936;2023-10-09T15:30:42;6.95;;;5.10;;
74383;SDS011;62824;52.994;-3.936;2023-10-09T15:33:08;8.48;;;4.57;;
74383;SDS011;62824;52.994;-3.936;2023-10-09T15:35:36;6.35;;;4.13;;
74383;SDS011;62824;52.994;-3.936;2023-10-09T15:38:03;8.25;;;4.68;;
74383;SDS011;62824;52.994;-3.936;2023-10-09T15:40:32;7.03;;;4.10;;
74383;SDS011;62824;52.994;-3.936;2023-10-09T15:43:02;8.35;;;5.18;;
74383;SDS011;62824;52.994;-3.936;2023-10-09T15:45:30;7.55;;;4.43;;